createdAt,value
2018-11-13T00:01:01.015Z,78.24
2018-11-13T00:03:05.972Z,77.91
2018-11-13T00:05:10.872Z,77.90
2018-11-13T00:07:15.892Z,78.04
2018-11-13T00:09:20.748Z,77.69
2018-11-13T00:11:25.742Z,78.16
2018-11-13T00:13:30.750Z,77.85
2018-11-13T00:15:35.743Z,77.97
2018-11-13T00:17:40.950Z,78.30
2018-11-13T00:19:45.704Z,78.35
2018-11-13T00:21:50.489Z,78.57
2018-11-13T00:23:55.765Z,78.46
2018-11-13T00:26:00.794Z,78.63
2018-11-13T00:28:05.730Z,78.86
2018-11-13T00:30:15.084Z,78.87
2018-11-13T00:32:19.901Z,78.84
2018-11-13T00:34:24.619Z,78.91
2018-11-13T00:36:29.360Z,79.05
2018-11-13T00:38:34.103Z,79.00
2018-11-13T00:40:38.874Z,78.90
2018-11-13T00:42:44.730Z,78.96
2018-11-13T00:44:49.479Z,79.32
2018-11-13T00:46:54.226Z,79.20
2018-11-13T00:48:58.927Z,78.91
2018-11-13T00:51:03.938Z,79.29
2018-11-13T00:53:08.617Z,79.24
2018-11-13T00:55:13.634Z,79.33
2018-11-13T00:57:18.522Z,79.46
2018-11-13T00:59:23.441Z,79.51
2018-11-13T01:01:28.192Z,79.68
2018-11-13T01:03:32.999Z,79.51
2018-11-13T01:05:37.813Z,79.42
2018-11-13T01:07:44.606Z,79.63
2018-11-13T01:09:49.437Z,79.94
2018-11-13T01:11:56.466Z,79.86
2018-11-13T01:14:01.098Z,79.63
2018-11-13T01:16:06.313Z,79.51
2018-11-13T01:18:11.505Z,79.59
2018-11-13T01:20:16.907Z,79.29
2018-11-13T01:22:21.731Z,79.59
2018-11-13T01:24:26.452Z,79.67
2018-11-13T01:26:31.223Z,79.48
2018-11-13T01:28:35.940Z,79.54
2018-11-13T01:30:40.638Z,79.32
2018-11-13T01:32:45.873Z,79.12
2018-11-13T01:34:50.590Z,79.35
2018-11-13T01:36:55.455Z,79.50
2018-11-13T01:39:00.329Z,79.24
2018-11-13T01:41:05.106Z,79.23
2018-11-13T01:43:09.963Z,79.15
2018-11-13T01:45:16.094Z,79.02
2018-11-13T01:47:21.170Z,78.93
2018-11-13T01:49:25.940Z,78.73
2018-11-13T01:51:30.612Z,78.18
2018-11-13T01:53:35.338Z,77.89
2018-11-13T01:55:40.329Z,77.33
2018-11-13T01:57:45.137Z,77.29
2018-11-13T01:59:49.934Z,77.09
2018-11-13T02:01:54.652Z,77.23
2018-11-13T02:03:59.445Z,76.83
2018-11-13T02:06:04.313Z,76.89
2018-11-13T02:08:09.235Z,76.99
2018-11-13T02:10:13.990Z,76.98
2018-11-13T02:12:18.900Z,77.06
2018-11-13T02:14:23.662Z,77.25
2018-11-13T02:16:28.526Z,77.04
2018-11-13T02:18:33.256Z,77.28
2018-11-13T02:20:38.097Z,77.43
2018-11-13T02:22:43.246Z,77.45
2018-11-13T02:24:48.084Z,77.57
2018-11-13T02:26:52.878Z,77.65
2018-11-13T02:28:57.659Z,77.74
2018-11-13T02:31:02.649Z,78.09
2018-11-13T02:33:07.634Z,78.10
2018-11-13T02:35:12.765Z,78.24
2018-11-13T02:37:17.523Z,78.26
2018-11-13T02:39:22.156Z,78.48
2018-11-13T02:41:26.850Z,78.54
2018-11-13T02:43:31.612Z,78.67
2018-11-13T02:45:36.408Z,79.13
2018-11-13T02:47:41.536Z,79.13
2018-11-13T02:49:46.307Z,79.07
2018-11-13T02:51:51.682Z,79.08
2018-11-13T02:53:56.452Z,79.11
2018-11-13T02:56:01.348Z,79.12
2018-11-13T02:58:06.564Z,79.25
2018-11-13T03:00:14.110Z,79.47
2018-11-13T03:02:19.074Z,79.82
2018-11-13T03:04:23.899Z,79.72
2018-11-13T03:06:28.643Z,79.84
2018-11-13T03:08:33.481Z,80.07
2018-11-13T03:10:38.418Z,79.89
2018-11-13T03:12:43.278Z,79.94
2018-11-13T03:14:48.012Z,80.07
2018-11-13T03:16:52.742Z,80.28
2018-11-13T03:18:57.554Z,80.31
2018-11-13T03:21:02.295Z,80.03
2018-11-13T03:23:07.133Z,80.08
2018-11-13T03:25:14.453Z,79.97
2018-11-13T03:27:19.295Z,80.00
2018-11-13T03:29:24.082Z,79.64
2018-11-13T03:31:29.072Z,79.62
2018-11-13T03:33:33.783Z,79.35
2018-11-13T03:35:38.866Z,78.98
2018-11-13T03:37:44.162Z,78.87
2018-11-13T03:39:49.040Z,78.84
2018-11-13T03:41:53.873Z,78.25
2018-11-13T03:43:58.709Z,77.73
2018-11-13T03:46:04.655Z,77.73
2018-11-13T03:48:09.477Z,77.64
2018-11-13T03:50:19.114Z,77.77
2018-11-13T03:52:23.903Z,77.49
2018-11-13T03:54:28.749Z,77.36
2018-11-13T03:56:33.579Z,77.57
2018-11-13T03:58:38.510Z,77.34
2018-11-13T04:00:43.310Z,77.42
2018-11-13T04:02:48.119Z,77.19
2018-11-13T04:04:52.950Z,77.04
2018-11-13T04:06:57.706Z,76.79
2018-11-13T04:09:02.719Z,76.91
2018-11-13T04:11:07.889Z,76.71
2018-11-13T04:13:12.617Z,76.36
2018-11-13T04:15:20.002Z,76.33
2018-11-13T04:17:24.978Z,76.10
2018-11-13T04:19:29.713Z,76.03
2018-11-13T04:21:34.854Z,76.16
2018-11-13T04:23:39.830Z,76.24
2018-11-13T04:25:44.717Z,76.22
2018-11-13T04:27:49.490Z,76.17
2018-11-13T04:29:54.390Z,76.02
2018-11-13T04:31:59.268Z,75.88
2018-11-13T04:34:04.239Z,75.90
2018-11-13T04:36:09.097Z,75.88
2018-11-13T04:38:13.836Z,75.62
2018-11-13T04:40:19.906Z,75.96
2018-11-13T04:42:25.033Z,75.54
2018-11-13T04:44:29.768Z,75.40
2018-11-13T04:46:34.705Z,75.64
2018-11-13T04:48:39.605Z,75.50
2018-11-13T04:50:44.587Z,74.89
2018-11-13T04:52:49.554Z,74.83
2018-11-13T04:54:54.387Z,74.63
2018-11-13T04:56:59.149Z,74.63
2018-11-13T04:59:04.460Z,74.68
2018-11-13T05:01:09.347Z,74.75
2018-11-13T05:03:17.737Z,74.63
2018-11-13T05:05:23.159Z,74.72
2018-11-13T05:07:27.985Z,74.70
2018-11-13T05:09:34.031Z,74.65
2018-11-13T05:11:40.937Z,74.43
2018-11-13T05:13:45.944Z,74.15
2018-11-13T05:15:51.612Z,74.36
2018-11-13T05:17:56.397Z,74.41
2018-11-13T05:20:01.199Z,74.03
2018-11-13T05:22:06.619Z,74.31
2018-11-13T05:24:11.401Z,74.22
2018-11-13T05:26:16.206Z,73.89
2018-11-13T05:28:20.988Z,74.09
2018-11-13T05:30:25.964Z,74.21
2018-11-13T05:32:30.773Z,74.66
2018-11-13T05:34:35.558Z,74.38
2018-11-13T05:36:40.441Z,74.85
2018-11-13T05:38:45.580Z,74.62
2018-11-13T05:40:50.561Z,74.63
2018-11-13T05:42:55.457Z,74.80
2018-11-13T05:45:00.408Z,75.16
2018-11-13T05:47:05.764Z,75.14
2018-11-13T05:49:10.672Z,75.36
2018-11-13T05:51:15.876Z,75.14
2018-11-13T05:53:20.794Z,75.59
2018-11-13T05:55:26.080Z,75.46
2018-11-13T05:57:31.006Z,75.37
2018-11-13T05:59:35.827Z,75.54
2018-11-13T06:01:40.828Z,75.88
2018-11-13T06:03:45.977Z,75.98
2018-11-13T06:05:52.288Z,76.17
2018-11-13T06:07:57.413Z,76.16
2018-11-13T06:10:02.629Z,75.96
2018-11-13T06:12:07.705Z,76.14
2018-11-13T06:14:13.393Z,76.60
2018-11-13T06:16:18.503Z,76.24
2018-11-13T06:18:23.609Z,76.32
2018-11-13T06:20:28.614Z,76.42
2018-11-13T06:22:33.829Z,76.30
2018-11-13T06:24:38.685Z,76.75
2018-11-13T06:26:43.646Z,76.50
2018-11-13T06:28:48.769Z,76.47
2018-11-13T06:30:53.670Z,76.80
2018-11-13T06:32:58.757Z,75.99
2018-11-13T06:35:03.848Z,76.07
2018-11-13T06:37:09.011Z,76.26
2018-11-13T06:39:14.781Z,75.74
2018-11-13T06:41:19.755Z,75.55
2018-11-13T06:43:24.897Z,75.63
2018-11-13T06:45:29.740Z,75.15
2018-11-13T06:47:34.747Z,75.13
2018-11-13T06:49:39.847Z,73.92
2018-11-13T06:51:44.808Z,73.79
2018-11-13T06:54:06.261Z,73.69
2018-11-13T06:56:11.190Z,72.74
2018-11-13T06:58:16.221Z,72.26
2018-11-13T07:00:21.172Z,72.43
2018-11-13T07:02:25.995Z,72.19
2018-11-13T07:04:31.215Z,71.65
2018-11-13T07:06:36.692Z,71.25
2018-11-13T07:08:41.881Z,70.94
2018-11-13T07:10:47.076Z,70.76
2018-11-13T07:12:53.800Z,70.37
2018-11-13T07:14:59.988Z,70.05
2018-11-13T07:17:06.218Z,69.69
2018-11-13T07:19:11.954Z,69.37
2018-11-13T07:21:17.187Z,68.84
2018-11-13T07:23:23.131Z,68.60
2018-11-13T07:25:28.838Z,68.93
2018-11-13T07:27:35.827Z,68.66
2018-11-13T07:29:42.439Z,68.56
2018-11-13T07:31:47.244Z,68.40
2018-11-13T07:33:52.077Z,67.90
2018-11-13T07:35:57.114Z,68.18
2018-11-13T07:38:02.183Z,68.15
2018-11-13T07:40:08.065Z,68.12
2018-11-13T07:42:12.896Z,68.55
2018-11-13T07:44:17.684Z,68.68
2018-11-13T07:46:22.681Z,68.68
2018-11-13T07:48:27.813Z,68.81
2018-11-13T07:50:32.823Z,68.83
2018-11-13T07:52:38.075Z,68.43
2018-11-13T07:54:43.115Z,68.44
2018-11-13T07:56:48.220Z,68.45
2018-11-13T07:58:53.180Z,67.98
2018-11-13T08:00:58.325Z,68.18
2018-11-13T08:03:20.814Z,68.28
2018-11-13T08:05:25.901Z,68.40
2018-11-13T08:07:43.048Z,68.47
2018-11-13T08:09:50.445Z,68.27
2018-11-13T08:11:59.428Z,68.36
2018-11-13T08:14:13.040Z,68.85
2018-11-13T08:16:30.267Z,68.92
2018-11-13T08:18:49.842Z,69.31
2018-11-13T08:21:22.451Z,69.59
2018-11-13T08:23:30.989Z,69.81
2018-11-13T08:25:42.047Z,69.62
2018-11-13T08:27:49.425Z,69.66
2018-11-13T08:29:54.415Z,69.41
2018-11-13T08:31:59.354Z,69.56
2018-11-13T08:34:04.414Z,69.55
2018-11-13T08:36:09.570Z,69.27
2018-11-13T08:38:14.605Z,69.52
2018-11-13T08:40:19.642Z,69.47
2018-11-13T08:42:24.518Z,69.17
2018-11-13T08:44:29.657Z,69.18
2018-11-13T08:46:34.738Z,68.90
2018-11-13T08:48:40.016Z,68.65
2018-11-13T08:50:45.089Z,68.80
2018-11-13T08:52:50.767Z,68.36
2018-11-13T08:54:56.061Z,67.96
2018-11-13T08:57:01.032Z,68.03
2018-11-13T08:59:06.288Z,67.95
2018-11-13T09:01:11.166Z,67.61
2018-11-13T09:03:16.128Z,67.79
2018-11-13T09:05:22.374Z,67.62
2018-11-13T09:07:27.351Z,67.48
2018-11-13T09:09:32.251Z,67.02
2018-11-13T09:11:37.049Z,66.66
2018-11-13T09:13:42.118Z,66.29
2018-11-13T09:15:48.781Z,64.87
2018-11-13T09:17:53.792Z,65.60
2018-11-13T09:19:58.757Z,65.38
2018-11-13T09:22:03.741Z,65.13
2018-11-13T09:24:08.960Z,64.68
2018-11-13T09:26:13.924Z,63.46
2018-11-13T09:28:18.848Z,63.63
2018-11-13T09:30:24.261Z,63.84
2018-11-13T09:32:29.272Z,63.97
2018-11-13T09:34:34.603Z,64.29
2018-11-13T09:36:39.473Z,63.28
2018-11-13T09:38:44.533Z,63.67
2018-11-13T09:40:49.867Z,63.69
2018-11-13T09:42:56.842Z,63.58
2018-11-13T09:45:02.242Z,63.53
2018-11-13T09:47:07.601Z,63.50
2018-11-13T09:49:12.481Z,63.25
2018-11-13T09:51:17.451Z,62.76
2018-11-13T09:53:22.430Z,62.56
2018-11-13T09:55:27.435Z,62.56
2018-11-13T09:57:32.488Z,61.92
2018-11-13T09:59:37.453Z,61.88
2018-11-13T10:01:42.706Z,61.86
2018-11-13T10:03:47.849Z,61.48
2018-11-13T10:05:52.112Z,61.94
2018-11-13T10:07:57.370Z,61.56
2018-11-13T10:10:02.467Z,61.38
2018-11-13T10:12:07.609Z,61.26
2018-11-13T10:14:13.211Z,61.18
2018-11-13T10:16:18.253Z,60.64
2018-11-13T10:18:23.357Z,60.63
2018-11-13T10:20:28.979Z,59.65
2018-11-13T10:22:33.929Z,59.71
2018-11-13T10:24:38.793Z,59.20
2018-11-13T10:26:43.722Z,59.02
2018-11-13T10:28:48.799Z,58.17
2018-11-13T10:30:53.880Z,58.29
2018-11-13T10:32:59.039Z,57.81
2018-11-13T10:35:04.217Z,57.46
2018-11-13T10:37:09.254Z,58.12
2018-11-13T10:39:14.330Z,58.25
2018-11-13T10:41:19.341Z,58.85
2018-11-13T10:43:24.144Z,58.69
2018-11-13T10:45:29.552Z,58.69
2018-11-13T10:47:34.401Z,57.81
2018-11-13T10:49:39.579Z,57.72
2018-11-13T10:51:44.534Z,57.55
2018-11-13T10:53:49.738Z,57.83
2018-11-13T10:55:54.674Z,57.17
2018-11-13T10:57:59.756Z,56.58
2018-11-13T11:00:06.556Z,56.41
2018-11-13T11:02:16.948Z,55.96
2018-11-13T11:04:26.948Z,56.86
2018-11-13T11:06:34.305Z,56.85
2018-11-13T11:08:39.432Z,56.76
2018-11-13T11:10:44.193Z,56.76
2018-11-13T11:12:48.964Z,56.20
2018-11-13T11:14:54.053Z,56.18
2018-11-13T11:16:58.900Z,55.70
2018-11-13T11:19:04.182Z,55.68
2018-11-13T11:21:09.746Z,55.82
2018-11-13T11:23:14.709Z,55.77
2018-11-13T11:25:20.140Z,56.23
2018-11-13T11:27:26.415Z,56.84
2018-11-13T11:29:31.337Z,56.06
2018-11-13T11:31:36.152Z,56.80
2018-11-13T11:33:41.255Z,56.65
2018-11-13T11:35:46.357Z,56.35
2018-11-13T11:37:51.563Z,56.32
2018-11-13T11:39:56.528Z,55.79
2018-11-13T11:42:01.573Z,56.23
2018-11-13T11:44:07.854Z,56.26
2018-11-13T11:46:12.830Z,56.55
2018-11-13T11:48:17.791Z,56.03
2018-11-13T11:50:22.977Z,55.11
2018-11-13T11:52:28.159Z,55.47
2018-11-13T11:54:33.661Z,55.89
2018-11-13T11:56:38.971Z,55.84
2018-11-13T11:58:44.171Z,55.48
2018-11-13T12:00:49.618Z,55.46
2018-11-13T12:02:54.560Z,55.10
2018-11-13T12:04:59.525Z,55.38
2018-11-13T12:07:05.467Z,55.40
2018-11-13T12:09:12.808Z,55.47
2018-11-13T12:11:17.906Z,55.12
2018-11-13T12:13:23.681Z,55.46
2018-11-13T12:15:28.763Z,55.39
2018-11-13T12:17:38.121Z,54.88
2018-11-13T12:19:42.986Z,54.87
2018-11-13T12:21:47.900Z,54.30
2018-11-13T12:23:53.264Z,54.09
2018-11-13T12:25:58.448Z,55.04
2018-11-13T12:28:03.900Z,54.71
2018-11-13T12:30:17.052Z,55.03
2018-11-13T12:32:22.609Z,54.35
2018-11-13T12:34:27.757Z,54.48
2018-11-13T12:36:32.832Z,54.42
2018-11-13T12:38:38.075Z,54.57
2018-11-13T12:40:45.644Z,54.36
2018-11-13T12:42:51.496Z,54.35
2018-11-13T12:44:56.442Z,53.97
2018-11-13T12:47:01.771Z,54.11
2018-11-13T12:49:07.172Z,54.02
2018-11-13T12:51:16.275Z,54.70
2018-11-13T12:53:21.327Z,53.38
2018-11-13T12:55:26.425Z,54.69
2018-11-13T12:57:31.538Z,54.32
2018-11-13T12:59:38.784Z,54.67
2018-11-13T13:01:44.203Z,55.81
2018-11-13T13:03:49.492Z,55.05
2018-11-13T13:05:54.561Z,55.88
2018-11-13T13:07:59.875Z,55.15
2018-11-13T13:10:05.447Z,54.88
2018-11-13T13:12:11.156Z,55.28
2018-11-13T13:14:17.336Z,54.57
2018-11-13T13:16:22.798Z,54.89
2018-11-13T13:18:28.798Z,55.86
2018-11-13T13:20:33.677Z,55.70
2018-11-13T13:22:39.377Z,55.73
2018-11-13T13:24:44.321Z,56.78
2018-11-13T13:26:49.481Z,55.83
2018-11-13T13:28:54.721Z,56.10
2018-11-13T13:30:59.698Z,55.68
2018-11-13T13:33:05.076Z,55.71
2018-11-13T13:35:52.961Z,55.71
2018-11-13T13:37:58.109Z,55.05
2018-11-13T13:40:03.843Z,55.83
2018-11-13T13:42:09.396Z,55.82
2018-11-13T13:44:14.955Z,55.97
2018-11-13T13:46:20.077Z,56.04
2018-11-13T13:48:25.562Z,56.25
2018-11-13T13:50:30.609Z,56.49
2018-11-13T13:52:36.608Z,56.00
2018-11-13T13:54:41.721Z,56.12
2018-11-13T13:56:46.703Z,55.73
2018-11-13T13:58:51.454Z,56.01
2018-11-13T14:00:57.545Z,56.06
2018-11-13T14:03:02.739Z,55.91
2018-11-13T14:05:10.261Z,56.57
2018-11-13T14:07:15.139Z,56.09
2018-11-13T14:09:20.236Z,56.25
2018-11-13T14:11:25.758Z,56.16
2018-11-13T14:13:31.189Z,56.91
2018-11-13T14:15:36.303Z,55.97
2018-11-13T14:17:41.546Z,55.99
2018-11-13T14:19:46.445Z,56.35
2018-11-13T14:21:51.757Z,56.01
2018-11-13T14:23:56.931Z,56.37
2018-11-13T14:26:01.960Z,56.69
2018-11-13T14:28:08.577Z,56.11
2018-11-13T14:30:22.808Z,56.54
2018-11-13T14:32:28.395Z,56.35
2018-11-13T14:34:50.503Z,56.64
2018-11-13T14:36:56.239Z,56.83
2018-11-13T14:39:01.503Z,56.16
2018-11-13T14:41:16.144Z,56.93
2018-11-13T14:43:21.033Z,57.20
2018-11-13T14:45:26.866Z,57.63
2018-11-13T14:47:31.935Z,57.60
2018-11-13T14:49:37.162Z,58.08
2018-11-13T14:54:05.867Z,58.91
2018-11-13T14:56:13.696Z,58.90
2018-11-13T14:58:25.615Z,58.47
2018-11-13T15:00:33.403Z,59.47
2018-11-13T15:02:38.730Z,59.62
2018-11-13T15:04:45.679Z,59.41
2018-11-13T15:06:53.737Z,59.60
2018-11-13T15:09:01.097Z,60.16
2018-11-13T15:11:06.515Z,60.57
2018-11-13T15:13:12.337Z,60.94
2018-11-13T15:15:17.758Z,60.68
2018-11-13T15:17:28.059Z,60.95
2018-11-13T15:19:33.820Z,60.67
2018-11-13T15:21:38.653Z,60.55
2018-11-13T15:23:44.819Z,60.69
2018-11-13T15:25:51.663Z,60.45
2018-11-13T15:27:56.851Z,60.80
2018-11-13T15:30:01.778Z,60.61
2018-11-13T15:32:06.932Z,60.30
2018-11-13T15:34:11.832Z,60.56
2018-11-13T15:36:17.110Z,60.49
2018-11-13T15:38:22.036Z,60.31
2018-11-13T15:40:28.233Z,60.16
2018-11-13T15:42:33.194Z,60.01
2018-11-13T15:44:44.273Z,60.32
2018-11-13T15:46:52.504Z,60.30
2018-11-13T15:48:58.339Z,60.50
2018-11-13T15:51:03.568Z,60.81
2018-11-13T15:53:09.304Z,60.56
2018-11-13T15:55:15.555Z,60.49
2018-11-13T15:57:20.821Z,60.88
2018-11-13T15:59:27.262Z,61.46
2018-11-13T16:01:32.417Z,61.48
2018-11-13T16:03:39.425Z,61.32
2018-11-13T16:05:48.454Z,61.08
2018-11-13T16:07:55.498Z,61.02
2018-11-13T16:10:01.510Z,61.69
2018-11-13T16:12:06.942Z,61.72
2018-11-13T16:14:12.255Z,61.94
2018-11-13T16:16:17.509Z,62.24
2018-11-13T16:18:23.971Z,62.23
2018-11-13T16:20:29.159Z,62.20
2018-11-13T16:22:34.656Z,62.47
2018-11-13T16:24:40.605Z,62.60
2018-11-13T16:26:45.541Z,63.10
2018-11-13T16:28:51.024Z,62.36
2018-11-13T16:30:56.152Z,62.45
2018-11-13T16:33:03.831Z,63.17
2018-11-13T16:35:14.344Z,63.40
2018-11-13T16:37:19.421Z,63.94
2018-11-13T16:39:24.501Z,64.43
2018-11-13T16:41:34.731Z,64.28
2018-11-13T16:43:39.751Z,64.48
2018-11-13T16:45:45.178Z,64.54
2018-11-13T16:47:50.651Z,64.84
2018-11-13T16:49:55.591Z,64.42
2018-11-13T16:52:00.900Z,64.71
2018-11-13T16:54:08.517Z,64.63
2018-11-13T16:56:13.540Z,64.68
2018-11-13T16:58:19.952Z,65.17
2018-11-13T17:00:25.284Z,64.09
2018-11-13T17:02:31.115Z,64.84
2018-11-13T17:04:36.127Z,65.36
2018-11-13T17:06:41.504Z,65.57
2018-11-13T17:08:46.579Z,65.55
2018-11-13T17:10:51.692Z,65.79
2018-11-13T17:12:58.015Z,65.91
2018-11-13T17:15:03.461Z,66.33
2018-11-13T17:17:08.960Z,66.49
2018-11-13T17:19:14.175Z,65.39
2018-11-13T17:21:19.608Z,65.91
2018-11-13T17:23:25.114Z,66.35
2018-11-13T17:25:31.940Z,66.54
2018-11-13T17:27:38.662Z,66.51
2018-11-13T17:29:43.902Z,66.58
2018-11-13T17:31:49.107Z,66.83
2018-11-13T17:33:55.757Z,66.20
2018-11-13T17:36:00.950Z,66.68
2018-11-13T17:38:09.065Z,66.89
2018-11-13T17:40:17.711Z,66.97
2018-11-13T17:42:24.015Z,67.42
2018-11-13T17:44:30.764Z,67.83
2018-11-13T17:46:35.129Z,67.43
2018-11-13T17:48:40.646Z,67.43
2018-11-13T17:50:45.918Z,66.99
2018-11-13T17:52:51.437Z,67.59
2018-11-13T17:54:57.940Z,67.88
2018-11-13T17:57:03.133Z,67.51
2018-11-13T17:59:08.337Z,67.81
2018-11-13T18:01:16.066Z,68.15
2018-11-13T18:03:21.247Z,68.31
2018-11-13T18:05:27.186Z,68.42
2018-11-13T18:07:32.818Z,68.74
2018-11-13T18:09:38.349Z,67.56
2018-11-13T18:11:43.842Z,67.90
2018-11-13T18:13:48.837Z,68.05
2018-11-13T18:15:53.932Z,68.16
2018-11-13T18:17:59.057Z,67.72
2018-11-13T18:20:04.657Z,68.18
2018-11-13T18:22:10.098Z,68.54
2018-11-13T18:24:19.552Z,68.67
2018-11-13T18:26:24.913Z,68.95
2018-11-13T18:28:32.880Z,68.60
2018-11-13T18:30:38.907Z,68.37
2018-11-13T18:32:45.123Z,68.73
2018-11-13T18:34:53.292Z,69.07
2018-11-13T18:36:58.885Z,68.60
2018-11-13T18:39:07.659Z,68.80
2018-11-13T18:41:12.752Z,68.97
2018-11-13T18:43:17.808Z,68.78
2018-11-13T18:45:26.365Z,68.75
2018-11-13T18:47:31.816Z,68.56
2018-11-13T18:49:37.282Z,68.89
2018-11-13T18:51:42.606Z,68.98
2018-11-13T18:53:47.832Z,69.36
2018-11-13T18:55:53.321Z,69.08
2018-11-13T18:57:59.613Z,69.35
2018-11-13T19:00:06.173Z,69.48
2018-11-13T19:02:11.525Z,69.96
2018-11-13T19:04:16.853Z,70.00
2018-11-13T19:06:23.021Z,69.81
2018-11-13T19:08:28.462Z,69.86
2018-11-13T19:10:38.657Z,70.01
2018-11-13T19:12:44.053Z,70.40
2018-11-13T19:14:49.017Z,70.50
2018-11-13T19:16:54.353Z,70.27
2018-11-13T19:19:00.659Z,70.86
2018-11-13T19:21:07.269Z,70.68
2018-11-13T19:23:13.254Z,70.71
2018-11-13T19:25:21.871Z,70.15
2018-11-13T19:27:30.969Z,69.79
2018-11-13T19:29:36.958Z,70.17
2018-11-13T19:31:43.037Z,70.34
2018-11-13T19:33:49.294Z,70.31
2018-11-13T19:35:54.788Z,70.29
2018-11-13T19:38:00.012Z,70.50
2018-11-13T19:40:07.213Z,70.42
2018-11-13T19:42:19.549Z,69.72
2018-11-13T19:44:28.542Z,69.90
2018-11-13T19:48:48.832Z,70.41
2018-11-13T19:50:58.615Z,70.03
2018-11-13T19:53:05.540Z,70.30
2018-11-13T19:55:14.623Z,70.09
2018-11-13T19:57:25.622Z,70.53
2018-11-13T19:59:31.960Z,70.12
2018-11-13T20:01:40.458Z,70.35
2018-11-13T20:03:45.349Z,69.86
2018-11-13T20:05:51.122Z,69.79
2018-11-13T20:07:56.045Z,69.96
2018-11-13T20:10:01.697Z,70.54
2018-11-13T20:12:06.810Z,70.46
2018-11-13T20:14:12.353Z,70.62
2018-11-13T20:16:18.412Z,70.76
2018-11-13T20:18:25.666Z,71.09
2018-11-13T20:20:32.914Z,70.72
2018-11-13T20:22:39.858Z,70.79
2018-11-13T20:24:45.370Z,71.17
2018-11-13T20:26:52.015Z,71.29
2018-11-13T20:28:57.287Z,71.28
2018-11-13T20:31:03.177Z,71.71
2018-11-13T20:33:08.794Z,71.54
2018-11-13T20:35:14.935Z,72.14
2018-11-13T20:37:25.276Z,72.03
2018-11-13T20:39:30.954Z,71.71
2018-11-13T20:43:56.256Z,71.86
2018-11-13T20:46:04.381Z,72.35
2018-11-13T20:48:11.664Z,72.60
2018-11-13T20:50:21.938Z,72.77
2018-11-13T20:52:32.564Z,72.56
2018-11-13T20:57:03.906Z,73.21
2018-11-13T20:59:11.738Z,73.50
2018-11-13T21:01:19.348Z,73.76
2018-11-13T21:03:28.807Z,73.68
2018-11-13T21:05:34.346Z,73.55
2018-11-13T21:07:40.577Z,74.13
2018-11-13T21:09:46.458Z,74.27
2018-11-13T21:11:53.390Z,74.42
2018-11-13T21:14:12.485Z,74.72
2018-11-13T21:16:18.589Z,74.76
2018-11-13T21:18:26.935Z,75.11
2018-11-13T21:20:33.917Z,74.87
2018-11-13T21:22:43.222Z,74.87
2018-11-13T21:24:50.165Z,74.84
2018-11-13T21:26:56.755Z,75.04
2018-11-13T21:29:02.951Z,75.21
2018-11-13T21:31:08.814Z,75.52
2018-11-13T21:33:14.426Z,75.21
2018-11-13T21:35:20.621Z,75.59
2018-11-13T21:39:35.789Z,75.71
2018-11-13T21:41:41.116Z,75.97
2018-11-13T21:43:46.316Z,75.93
2018-11-13T21:45:51.544Z,76.01
2018-11-13T21:47:56.837Z,76.37
2018-11-13T21:50:01.891Z,76.38
2018-11-13T21:52:07.075Z,76.55
2018-11-13T21:54:12.203Z,76.88
2018-11-13T21:56:17.291Z,76.61
2018-11-13T21:58:23.743Z,76.79
2018-11-13T22:00:33.008Z,76.95
2018-11-13T22:04:54.159Z,77.11
2018-11-13T22:06:59.136Z,77.28
2018-11-13T22:09:05.396Z,77.20
2018-11-13T22:11:10.537Z,77.49
2018-11-13T22:13:15.644Z,77.01
2018-11-13T22:15:22.482Z,76.82
2018-11-13T22:17:29.122Z,77.52
2018-11-13T22:19:34.845Z,77.52
2018-11-13T22:21:41.262Z,77.17
2018-11-13T22:23:47.494Z,77.12
2018-11-13T22:25:53.139Z,77.01
2018-11-13T22:27:59.463Z,77.46
2018-11-13T22:30:05.865Z,77.54
2018-11-13T22:32:11.942Z,77.73
2018-11-13T22:34:17.624Z,77.72
2018-11-13T22:36:23.058Z,77.87
2018-11-13T22:38:28.284Z,78.22
2018-11-13T22:40:33.777Z,78.56
2018-11-13T22:42:39.414Z,78.56
2018-11-13T22:44:44.727Z,78.68
2018-11-13T22:46:50.112Z,78.41
2018-11-13T22:48:56.160Z,78.50
2018-11-13T22:51:01.345Z,78.43
2018-11-13T22:53:06.673Z,78.38
2018-11-13T22:55:13.406Z,78.53
2018-11-13T22:57:19.033Z,78.49
2018-11-13T22:59:24.519Z,78.14
2018-11-13T23:01:29.503Z,78.43
2018-11-13T23:03:34.590Z,78.47
2018-11-13T23:05:39.896Z,78.67
2018-11-13T23:07:45.103Z,78.14
2018-11-13T23:09:50.291Z,78.02
2018-11-13T23:11:55.361Z,78.07
2018-11-13T23:14:07.968Z,78.58
2018-11-13T23:16:18.407Z,78.50
2018-11-13T23:18:23.472Z,78.31
2018-11-13T23:20:28.505Z,78.47
2018-11-13T23:22:33.523Z,78.41
2018-11-13T23:24:38.540Z,78.43
2018-11-13T23:26:43.520Z,78.66
2018-11-13T23:28:48.734Z,78.62
2018-11-13T23:30:54.079Z,78.63
2018-11-13T23:32:59.686Z,78.43
2018-11-13T23:35:05.438Z,77.92
2018-11-13T23:37:10.318Z,78.43
2018-11-13T23:39:15.950Z,78.26
2018-11-13T23:41:20.996Z,78.38
2018-11-13T23:43:26.230Z,78.27
2018-11-13T23:45:31.177Z,78.50
2018-11-13T23:47:36.235Z,78.62
2018-11-13T23:49:41.443Z,78.41
2018-11-13T23:51:46.882Z,78.31
2018-11-13T23:53:52.025Z,78.53
2018-11-13T23:55:57.060Z,78.75
2018-11-13T23:58:02.509Z,78.67
